Blue Hills, Connecticut
Current Conditions -  °F | °C
As of 2:53 PM on Friday 21 Nov 2014 (Local Time) from KHFD Reporting Station
Scattered Clouds Scattered Clouds  
Wind Chill: 23°   Ceiling: Unl
Heat Index: 33°   Visibility: 10mi
Dew Point: 10°   Wind: 15mph
Humidity: 38%   Direction: 290°WNW
Pressure: 30.29"   Gusts: 23mph
Location:  41.7934°N, 72.6965°W
Report Text: KHFD 211953Z 29013G20KT 10SM SCT055 01/M12 A3029 RMK AO2 PK WND 30027/1858 SLP255 T00061122
Loading
Personal Weather Stations






























Interactive Weather Map New forecast layout! Learn more

10-Day Weather Forecast

Advertisements
Track Severe Weather on mobile